Hollywood Hills, South Carolina
Current Conditions -  °F | °C
As of 6:53 AM on Thursday 27 Nov 2014 (Local Time) from KCUB Reporting Station
Clear Clear  
Wind Chill: 39°   Ceiling: Unl
Heat Index: 43°   Visibility: 10mi
Dew Point: 32°   Wind: 7mph
Humidity: 65%   Direction: 260°W
Pressure: 30.07"   Gusts: NA
Location:  34.1179°N, 81.0612°W
Report Text: KCUB 271153Z AUTO 26006KT 10SM CLR 06/00 A3007 RMK AO2 SLP181 70015 T00610000 10078 20044 53010
Loading
Personal Weather Stations






























Interactive Weather Map New forecast layout! Learn more

10-Day Weather Forecast

Advertisements
Track Severe Weather on mobile